sensor_id;sensor_type;location;lat;lon;timestamp;pressure;altitude;pressure_sealevel;temperature;humidity
43155;BME280;34212;51.018;13.586;2024-03-23T00:54:11;97071.84;;;11.02;82.36
43155;BME280;34212;51.018;13.586;2024-03-23T00:59:12;97083.13;;;10.91;82.82
43155;BME280;34212;51.018;13.586;2024-03-23T01:04:15;97079.81;;;10.82;82.86
43155;BME280;34212;51.018;13.586;2024-03-23T01:09:16;97061.09;;;10.76;82.75
43155;BME280;34212;51.018;13.586;2024-03-23T01:14:16;97047.34;;;10.72;83.11
43155;BME280;34212;51.018;13.586;2024-03-23T01:19:17;97038.13;;;10.75;82.74
43155;BME280;34212;51.018;13.586;2024-03-23T01:24:17;97040.56;;;10.70;83.23
43155;BME280;34212;51.018;13.586;2024-03-23T01:29:18;97042.66;;;10.81;84.36
43155;BME280;34212;51.018;13.586;2024-03-23T01:34:18;97041.91;;;11.00;84.51
43155;BME280;34212;51.018;13.586;2024-03-23T01:39:21;97036.59;;;11.14;84.43
43155;BME280;34212;51.018;13.586;2024-03-23T01:44:21;97025.94;;;11.20;84.97
43155;BME280;34212;51.018;13.586;2024-03-23T01:49:22;97013.00;;;11.24;85.02
43155;BME280;34212;51.018;13.586;2024-03-23T01:54:22;97014.84;;;11.30;85.38
43155;BME280;34212;51.018;13.586;2024-03-23T01:59:23;96999.06;;;11.28;85.24
43155;BME280;34212;51.018;13.586;2024-03-23T02:04:24;96991.47;;;11.32;85.42
43155;BME280;34212;51.018;13.586;2024-03-23T02:09:24;96979.56;;;11.41;85.73
43155;BME280;34212;51.018;13.586;2024-03-23T02:14:25;96988.38;;;11.48;85.55
43155;BME280;34212;51.018;13.586;2024-03-23T02:19:25;96974.22;;;11.54;85.58
43155;BME280;34212;51.018;13.586;2024-03-23T02:24:26;96968.44;;;11.57;85.63
43155;BME280;34212;51.018;13.586;2024-03-23T02:29:26;96957.34;;;11.61;85.47
43155;BME280;34212;51.018;13.586;2024-03-23T02:34:27;96962.28;;;11.64;86.01
43155;BME280;34212;51.018;13.586;2024-03-23T02:39:27;96951.81;;;11.69;86.07
43155;BME280;34212;51.018;13.586;2024-03-23T02:44:28;96946.66;;;11.74;86.27
43155;BME280;34212;51.018;13.586;2024-03-23T02:49:28;96938.84;;;11.79;86.41
43155;BME280;34212;51.018;13.586;2024-03-23T02:54:29;96937.00;;;11.79;86.16
43155;BME280;34212;51.018;13.586;2024-03-23T02:59:29;96928.78;;;11.81;86.54
43155;BME280;34212;51.018;13.586;2024-03-23T03:04:30;96918.69;;;11.83;86.56
43155;BME280;34212;51.018;13.586;2024-03-23T03:09:31;96898.13;;;11.84;86.73
43155;BME280;34212;51.018;13.586;2024-03-23T03:14:32;96901.66;;;11.84;86.70
43155;BME280;34212;51.018;13.586;2024-03-23T03:19:32;96901.66;;;11.84;87.00
43155;BME280;34212;51.018;13.586;2024-03-23T03:24:33;96897.16;;;11.85;87.06
43155;BME280;34212;51.018;13.586;2024-03-23T03:29:33;96887.69;;;11.89;87.24
43155;BME280;34212;51.018;13.586;2024-03-23T03:34:35;96894.47;;;11.91;87.47
43155;BME280;34212;51.018;13.586;2024-03-23T03:39:36;96885.41;;;11.92;87.63
43155;BME280;34212;51.018;13.586;2024-03-23T03:44:37;96887.06;;;11.93;87.38
43155;BME280;34212;51.018;13.586;2024-03-23T03:49:38;96854.16;;;11.93;87.50
43155;BME280;34212;51.018;13.586;2024-03-23T03:54:38;96860.75;;;11.90;87.57
43155;BME280;34212;51.018;13.586;2024-03-23T03:59:39;96848.66;;;11.81;87.53
43155;BME280;34212;51.018;13.586;2024-03-23T04:04:39;96835.94;;;11.70;87.43
43155;BME280;34212;51.018;13.586;2024-03-23T04:09:40;96835.34;;;11.61;86.81
43155;BME280;34212;51.018;13.586;2024-03-23T04:14:40;96832.09;;;11.46;85.72
43155;BME280;34212;51.018;13.586;2024-03-23T04:19:41;96823.50;;;11.24;85.70
43155;BME280;34212;51.018;13.586;2024-03-23T04:24:41;96808.75;;;11.08;85.15
43155;BME280;34212;51.018;13.586;2024-03-23T04:29:42;96803.63;;;10.93;85.27
43155;BME280;34212;51.018;13.586;2024-03-23T04:34:46;96794.41;;;10.82;85.01
43155;BME280;34212;51.018;13.586;2024-03-23T04:39:47;96786.84;;;10.73;84.58
43155;BME280;34212;51.018;13.586;2024-03-23T04:44:47;96791.75;;;10.62;84.60
43155;BME280;34212;51.018;13.586;2024-03-23T04:49:48;96757.28;;;10.61;85.46
43155;BME280;34212;51.018;13.586;2024-03-23T04:54:49;96743.75;;;10.69;86.62
43155;BME280;34212;51.018;13.586;2024-03-23T04:59:50;96732.84;;;10.84;87.25
43155;BME280;34212;51.018;13.586;2024-03-23T05:04:50;96712.09;;;10.99;87.34
43155;BME280;34212;51.018;13.586;2024-03-23T05:09:51;96704.91;;;11.06;87.13
43155;BME280;34212;51.018;13.586;2024-03-23T05:14:51;96708.59;;;11.05;87.00
43155;BME280;34212;51.018;13.586;2024-03-23T05:19:53;96702.84;;;11.08;87.15
43155;BME280;34212;51.018;13.586;2024-03-23T05:24:53;96653.56;;;11.18;87.38
43155;BME280;34212;51.018;13.586;2024-03-23T05:29:54;96681.25;;;11.23;87.34
43155;BME280;34212;51.018;13.586;2024-03-23T05:34:54;96673.63;;;11.27;87.74
43155;BME280;34212;51.018;13.586;2024-03-23T05:39:57;96672.19;;;11.31;87.60
43155;BME280;34212;51.018;13.586;2024-03-23T05:44:57;96672.97;;;11.38;87.38
43155;BME280;34212;51.018;13.586;2024-03-23T05:49:57;96664.53;;;11.41;87.25
43155;BME280;34212;51.018;13.586;2024-03-23T05:54:58;96642.75;;;11.44;86.97
43155;BME280;34212;51.018;13.586;2024-03-23T05:59:59;96618.75;;;11.44;86.98
43155;BME280;34212;51.018;13.586;2024-03-23T06:04:59;96620.22;;;11.40;86.84
43155;BME280;34212;51.018;13.586;2024-03-23T06:10:01;96589.84;;;11.35;86.65
43155;BME280;34212;51.018;13.586;2024-03-23T06:15:02;96593.94;;;11.30;86.78
43155;BME280;34212;51.018;13.586;2024-03-23T06:20:02;96596.44;;;11.32;87.24
43155;BME280;34212;51.018;13.586;2024-03-23T06:25:03;96581.59;;;11.36;87.10
43155;BME280;34212;51.018;13.586;2024-03-23T06:30:04;96551.22;;;11.37;87.25
43155;BME280;34212;51.018;13.586;2024-03-23T06:35:05;96548.13;;;11.40;87.20
43155;BME280;34212;51.018;13.586;2024-03-23T06:40:08;96539.50;;;11.38;87.14
43155;BME280;34212;51.018;13.586;2024-03-23T06:45:10;96535.81;;;11.39;87.32
43155;BME280;34212;51.018;13.586;2024-03-23T06:50:10;96513.00;;;11.43;87.58
43155;BME280;34212;51.018;13.586;2024-03-23T06:55:11;96522.34;;;11.52;88.08
43155;BME280;34212;51.018;13.586;2024-03-23T07:00:12;96516.13;;;11.59;88.30
43155;BME280;34212;51.018;13.586;2024-03-23T07:05:13;96518.63;;;11.60;88.11
43155;BME280;34212;51.018;13.586;2024-03-23T07:10:14;96522.09;;;11.61;87.77
43155;BME280;34212;51.018;13.586;2024-03-23T07:15:14;96505.03;;;11.62;87.92
43155;BME280;34212;51.018;13.586;2024-03-23T07:20:16;96478.50;;;11.67;88.45
43155;BME280;34212;51.018;13.586;2024-03-23T07:25:16;96475.13;;;11.78;89.01
43155;BME280;34212;51.018;13.586;2024-03-23T07:30:17;96461.28;;;11.88;89.00
43155;BME280;34212;51.018;13.586;2024-03-23T07:35:17;96441.91;;;11.92;89.62
43155;BME280;34212;51.018;13.586;2024-03-23T07:40:18;96436.22;;;12.07;89.76
43155;BME280;34212;51.018;13.586;2024-03-23T07:45:18;96422.69;;;12.20;89.77
43155;BME280;34212;51.018;13.586;2024-03-23T07:50:19;96419.03;;;12.33;90.12
43155;BME280;34212;51.018;13.586;2024-03-23T07:55:19;96401.00;;;12.47;89.98
43155;BME280;34212;51.018;13.586;2024-03-23T08:00:21;96393.22;;;12.57;90.12
43155;BME280;34212;51.018;13.586;2024-03-23T08:05:22;96383.72;;;12.61;90.19
43155;BME280;34212;51.018;13.586;2024-03-23T08:10:22;96369.06;;;12.64;90.16
43155;BME280;34212;51.018;13.586;2024-03-23T08:15:23;96360.03;;;12.65;90.29
43155;BME280;34212;51.018;13.586;2024-03-23T08:20:23;96353.88;;;12.76;90.68
43155;BME280;34212;51.018;13.586;2024-03-23T08:25:23;96340.09;;;13.03;91.33
43155;BME280;34212;51.018;13.586;2024-03-23T08:30:24;96340.56;;;13.23;90.94
43155;BME280;34212;51.018;13.586;2024-03-23T08:35:24;96330.81;;;13.40;91.05
43155;BME280;34212;51.018;13.586;2024-03-23T08:40:25;96345.84;;;13.42;90.91
43155;BME280;34212;51.018;13.586;2024-03-23T08:45:25;96334.56;;;13.39;91.25
43155;BME280;34212;51.018;13.586;2024-03-23T08:50:26;96338.59;;;13.54;91.27
43155;BME280;34212;51.018;13.586;2024-03-23T08:55:27;96334.66;;;13.68;90.76
43155;BME280;34212;51.018;13.586;2024-03-23T09:00:27;96316.56;;;13.75;89.60
43155;BME280;34212;51.018;13.586;2024-03-23T09:05:28;96313.88;;;13.87;89.22
43155;BME280;34212;51.018;13.586;2024-03-23T09:10:29;96330.97;;;13.98;87.90
43155;BME280;34212;51.018;13.586;2024-03-23T09:15:29;96338.97;;;14.09;85.90
43155;BME280;34212;51.018;13.586;2024-03-23T09:20:33;96328.75;;;13.95;84.99
43155;BME280;34212;51.018;13.586;2024-03-23T09:25:39;96338.06;;;13.92;84.95
43155;BME280;34212;51.018;13.586;2024-03-23T09:30:40;96358.75;;;13.68;83.74
43155;BME280;34212;51.018;13.586;2024-03-23T09:35:44;96417.88;;;12.89;81.66
43155;BME280;34212;51.018;13.586;2024-03-23T09:40:45;96419.75;;;11.67;83.20
43155;BME280;34212;51.018;13.586;2024-03-23T09:45:46;96454.19;;;10.93;86.65
43155;BME280;34212;51.018;13.586;2024-03-23T09:50:46;96519.50;;;10.19;87.24
43155;BME280;34212;51.018;13.586;2024-03-23T09:55:49;96515.69;;;9.35;88.43
43155;BME280;34212;51.018;13.586;2024-03-23T10:00:49;96539.72;;;8.87;90.18
43155;BME280;34212;51.018;13.586;2024-03-23T10:06:00;96557.53;;;8.45;89.84
43155;BME280;34212;51.018;13.586;2024-03-23T10:11:12;96592.59;;;7.78;88.62
43155;BME280;34212;51.018;13.586;2024-03-23T10:16:12;96632.09;;;7.23;89.78
43155;BME280;34212;51.018;13.586;2024-03-23T10:21:20;96677.69;;;6.82;90.53
43155;BME280;34212;51.018;13.586;2024-03-23T10:26:22;96693.22;;;6.56;91.51
43155;BME280;34212;51.018;13.586;2024-03-23T10:31:22;96725.53;;;6.36;91.57
43155;BME280;34212;51.018;13.586;2024-03-23T10:36:23;96748.47;;;6.21;91.97
43155;BME280;34212;51.018;13.586;2024-03-23T10:41:27;96784.13;;;6.10;93.06
43155;BME280;34212;51.018;13.586;2024-03-23T10:46:28;96797.56;;;6.09;93.28
43155;BME280;34212;51.018;13.586;2024-03-23T10:51:29;96826.00;;;6.07;93.10
43155;BME280;34212;51.018;13.586;2024-03-23T10:56:30;96859.78;;;6.05;93.86
43155;BME280;34212;51.018;13.586;2024-03-23T11:01:34;96870.50;;;6.11;94.06
43155;BME280;34212;51.018;13.586;2024-03-23T11:06:35;96875.66;;;6.05;92.69
43155;BME280;34212;51.018;13.586;2024-03-23T11:11:36;96887.09;;;5.97;92.98
43155;BME280;34212;51.018;13.586;2024-03-23T11:16:36;96884.94;;;6.00;94.98
43155;BME280;34212;51.018;13.586;2024-03-23T11:21:52;96896.34;;;6.01;93.71
43155;BME280;34212;51.018;13.586;2024-03-23T11:26:53;96893.88;;;5.91;94.34
43155;BME280;34212;51.018;13.586;2024-03-23T11:31:54;96897.22;;;5.93;93.50
43155;BME280;34212;51.018;13.586;2024-03-23T11:37:05;96913.09;;;5.85;93.07
43155;BME280;34212;51.018;13.586;2024-03-23T11:42:06;96922.50;;;5.88;94.55
43155;BME280;34212;51.018;13.586;2024-03-23T11:47:07;96923.00;;;5.91;94.78
43155;BME280;34212;51.018;13.586;2024-03-23T11:52:08;96953.41;;;6.04;95.29
43155;BME280;34212;51.018;13.586;2024-03-23T11:57:08;96935.06;;;6.02;94.44
43155;BME280;34212;51.018;13.586;2024-03-23T12:02:10;96923.78;;;6.08;95.17
43155;BME280;34212;51.018;13.586;2024-03-23T12:07:15;96923.31;;;6.05;94.39
43155;BME280;34212;51.018;13.586;2024-03-23T12:12:16;96932.53;;;6.17;95.47
43155;BME280;34212;51.018;13.586;2024-03-23T12:17:17;96922.88;;;6.24;96.15
43155;BME280;34212;51.018;13.586;2024-03-23T12:22:22;96919.63;;;6.45;95.23
43155;BME280;34212;51.018;13.586;2024-03-23T12:27:22;96952.91;;;6.39;93.66
43155;BME280;34212;51.018;13.586;2024-03-23T12:32:23;96929.00;;;6.24;94.04
43155;BME280;34212;51.018;13.586;2024-03-23T12:37:24;96928.53;;;6.44;96.04
43155;BME280;34212;51.018;13.586;2024-03-23T12:42:24;96931.97;;;6.53;94.25
43155;BME280;34212;51.018;13.586;2024-03-23T12:47:25;96925.72;;;6.45;94.35
43155;BME280;34212;51.018;13.586;2024-03-23T12:52:25;96949.59;;;6.37;93.83
43155;BME280;34212;51.018;13.586;2024-03-23T12:57:28;96965.84;;;6.34;93.95
43155;BME280;34212;51.018;13.586;2024-03-23T13:02:29;96966.84;;;6.33;94.10
43155;BME280;34212;51.018;13.586;2024-03-23T13:07:29;96947.69;;;6.23;92.93
43155;BME280;34212;51.018;13.586;2024-03-23T13:12:30;96943.81;;;6.11;93.88
43155;BME280;34212;51.018;13.586;2024-03-23T13:17:31;96933.50;;;6.16;95.17
43155;BME280;34212;51.018;13.586;2024-03-23T13:22:31;96944.66;;;6.34;94.21
43155;BME280;34212;51.018;13.586;2024-03-23T13:27:32;96981.38;;;6.37;94.29
43155;BME280;34212;51.018;13.586;2024-03-23T13:32:33;97002.84;;;6.51;94.67
43155;BME280;34212;51.018;13.586;2024-03-23T13:37:33;96992.75;;;6.77;95.06
43155;BME280;34212;51.018;13.586;2024-03-23T13:42:34;96973.97;;;7.48;100.00
43155;BME280;34212;51.018;13.586;2024-03-23T13:47:34;96973.25;;;8.13;97.95
43155;BME280;34212;51.018;13.586;2024-03-23T13:52:35;96958.59;;;8.17;97.08
43155;BME280;34212;51.018;13.586;2024-03-23T13:57:35;96956.59;;;8.04;93.00
43155;BME280;34212;51.018;13.586;2024-03-23T14:02:36;96952.91;;;8.20;95.05
43155;BME280;34212;51.018;13.586;2024-03-23T14:07:37;96958.00;;;8.37;93.36
43155;BME280;34212;51.018;13.586;2024-03-23T14:12:37;96949.75;;;8.31;92.10
43155;BME280;34212;51.018;13.586;2024-03-23T14:17:38;96959.63;;;8.16;91.26
43155;BME280;34212;51.018;13.586;2024-03-23T14:22:39;96976.53;;;8.30;93.38
43155;BME280;34212;51.018;13.586;2024-03-23T14:27:43;96970.47;;;8.36;92.00
43155;BME280;34212;51.018;13.586;2024-03-23T14:32:44;96982.84;;;8.29;90.62
43155;BME280;34212;51.018;13.586;2024-03-23T14:37:45;96966.19;;;8.35;91.96
43155;BME280;34212;51.018;13.586;2024-03-23T14:42:47;96959.84;;;8.51;92.63
43155;BME280;34212;51.018;13.586;2024-03-23T14:47:47;96949.72;;;8.61;92.37
43155;BME280;34212;51.018;13.586;2024-03-23T14:52:48;96959.22;;;8.70;91.94
43155;BME280;34212;51.018;13.586;2024-03-23T14:57:48;96945.03;;;8.85;92.32
43155;BME280;34212;51.018;13.586;2024-03-23T15:02:51;96951.97;;;9.00;92.37
43155;BME280;34212;51.018;13.586;2024-03-23T15:07:51;96947.84;;;8.98;91.55
43155;BME280;34212;51.018;13.586;2024-03-23T15:12:52;96945.88;;;8.85;91.00
43155;BME280;34212;51.018;13.586;2024-03-23T15:17:52;96931.38;;;8.66;91.47
43155;BME280;34212;51.018;13.586;2024-03-23T15:22:53;96926.06;;;8.66;92.04
43155;BME280;34212;51.018;13.586;2024-03-23T15:27:53;96930.53;;;8.66;91.43
43155;BME280;34212;51.018;13.586;2024-03-23T15:32:55;96928.53;;;8.68;92.29
43155;BME280;34212;51.018;13.586;2024-03-23T15:37:55;96918.44;;;8.85;92.84
43155;BME280;34212;51.018;13.586;2024-03-23T15:42:56;96919.84;;;9.02;92.29
43155;BME280;34212;51.018;13.586;2024-03-23T15:47:56;96919.47;;;9.05;91.99
43155;BME280;34212;51.018;13.586;2024-03-23T15:52:57;96920.28;;;9.06;91.78
43155;BME280;34212;51.018;13.586;2024-03-23T15:57:57;96918.06;;;9.09;93.12
43155;BME280;34212;51.018;13.586;2024-03-23T16:02:58;96910.06;;;9.09;92.26
43155;BME280;34212;51.018;13.586;2024-03-23T16:07:58;96908.44;;;9.08;92.31
43155;BME280;34212;51.018;13.586;2024-03-23T16:12:59;96910.03;;;9.02;90.89
43155;BME280;34212;51.018;13.586;2024-03-23T16:17:59;96926.97;;;8.73;88.33
43155;BME280;34212;51.018;13.586;2024-03-23T16:23:00;96953.72;;;8.21;88.81
43155;BME280;34212;51.018;13.586;2024-03-23T16:28:01;96957.31;;;7.69;88.39
43155;BME280;34212;51.018;13.586;2024-03-23T16:33:01;96968.22;;;7.21;88.90
43155;BME280;34212;51.018;13.586;2024-03-23T16:38:07;96969.44;;;6.96;89.94
43155;BME280;34212;51.018;13.586;2024-03-23T16:43:07;96962.91;;;6.83;90.12
43155;BME280;34212;51.018;13.586;2024-03-23T16:48:08;96968.72;;;6.79;90.76
43155;BME280;34212;51.018;13.586;2024-03-23T16:53:08;96982.81;;;6.79;91.35
43155;BME280;34212;51.018;13.586;2024-03-23T16:58:09;96973.78;;;6.88;91.82
43155;BME280;34212;51.018;13.586;2024-03-23T17:03:09;96973.69;;;7.05;91.45
43155;BME280;34212;51.018;13.586;2024-03-23T17:08:10;96986.13;;;7.19;90.91
43155;BME280;34212;51.018;13.586;2024-03-23T17:13:10;96984.53;;;6.95;88.40
43155;BME280;34212;51.018;13.586;2024-03-23T17:18:12;96982.16;;;6.77;89.50
43155;BME280;34212;51.018;13.586;2024-03-23T17:23:12;96967.63;;;6.73;89.73
43155;BME280;34212;51.018;13.586;2024-03-23T17:28:13;96972.56;;;6.76;89.91
43155;BME280;34212;51.018;13.586;2024-03-23T17:33:16;96963.66;;;6.69;88.52
43155;BME280;34212;51.018;13.586;2024-03-23T17:38:17;96963.06;;;6.59;87.63
43155;BME280;34212;51.018;13.586;2024-03-23T17:43:17;96960.78;;;6.47;87.19
43155;BME280;34212;51.018;13.586;2024-03-23T17:48:18;96962.69;;;6.39;86.19
43155;BME280;34212;51.018;13.586;2024-03-23T17:53:18;96960.06;;;6.31;85.76
43155;BME280;34212;51.018;13.586;2024-03-23T17:58:19;96957.13;;;6.25;85.78
43155;BME280;34212;51.018;13.586;2024-03-23T18:03:19;96982.09;;;6.23;86.11
43155;BME280;34212;51.018;13.586;2024-03-23T18:08:19;96981.47;;;6.21;85.95
43155;BME280;34212;51.018;13.586;2024-03-23T18:13:20;96976.53;;;6.18;85.90
43155;BME280;34212;51.018;13.586;2024-03-23T18:18:20;96984.16;;;6.13;85.44
43155;BME280;34212;51.018;13.586;2024-03-23T18:23:21;96986.16;;;6.11;85.81
43155;BME280;34212;51.018;13.586;2024-03-23T18:28:22;96990.59;;;6.10;85.86
43155;BME280;34212;51.018;13.586;2024-03-23T18:33:23;96990.59;;;6.10;85.81
43155;BME280;34212;51.018;13.586;2024-03-23T18:38:23;96981.84;;;6.10;86.14
43155;BME280;34212;51.018;13.586;2024-03-23T18:43:25;96977.38;;;6.10;86.42
43155;BME280;34212;51.018;13.586;2024-03-23T18:48:28;96982.50;;;6.12;86.29
43155;BME280;34212;51.018;13.586;2024-03-23T18:53:28;96971.91;;;6.12;86.10
43155;BME280;34212;51.018;13.586;2024-03-23T18:58:29;96975.72;;;6.09;85.33
43155;BME280;34212;51.018;13.586;2024-03-23T19:03:32;96970.97;;;6.05;85.39
43155;BME280;34212;51.018;13.586;2024-03-23T19:08:33;96978.25;;;6.03;85.47
43155;BME280;34212;51.018;13.586;2024-03-23T19:13:34;96978.59;;;5.99;85.57
43155;BME280;34212;51.018;13.586;2024-03-23T19:18:34;96974.09;;;6.00;85.79
43155;BME280;34212;51.018;13.586;2024-03-23T19:23:35;96975.94;;;5.99;86.45
43155;BME280;34212;51.018;13.586;2024-03-23T19:28:36;96965.69;;;5.96;86.47
43155;BME280;34212;51.018;13.586;2024-03-23T19:33:37;96969.66;;;5.92;86.43
43155;BME280;34212;51.018;13.586;2024-03-23T19:38:37;96974.28;;;5.90;86.61
43155;BME280;34212;51.018;13.586;2024-03-23T19:43:38;96977.28;;;5.79;86.80
43155;BME280;34212;51.018;13.586;2024-03-23T19:48:38;96968.22;;;5.73;86.86
43155;BME280;34212;51.018;13.586;2024-03-23T19:53:39;96961.94;;;5.66;86.97
43155;BME280;34212;51.018;13.586;2024-03-23T19:58:40;96963.63;;;5.59;86.80
43155;BME280;34212;51.018;13.586;2024-03-23T20:03:40;96957.84;;;5.55;87.07
43155;BME280;34212;51.018;13.586;2024-03-23T20:08:41;96952.56;;;5.55;87.03
43155;BME280;34212;51.018;13.586;2024-03-23T20:13:42;96962.13;;;5.56;87.04
43155;BME280;34212;51.018;13.586;2024-03-23T20:18:42;96951.56;;;5.56;86.21
43155;BME280;34212;51.018;13.586;2024-03-23T20:23:43;96957.84;;;5.55;86.35
43155;BME280;34212;51.018;13.586;2024-03-23T20:28:43;96954.53;;;5.53;86.08
43155;BME280;34212;51.018;13.586;2024-03-23T20:33:44;96964.47;;;5.51;86.31
43155;BME280;34212;51.018;13.586;2024-03-23T20:38:44;96968.91;;;5.51;86.20
43155;BME280;34212;51.018;13.586;2024-03-23T20:43:45;96970.75;;;5.50;86.41
43155;BME280;34212;51.018;13.586;2024-03-23T20:48:45;96961.16;;;5.49;86.09
43155;BME280;34212;51.018;13.586;2024-03-23T20:53:53;96959.69;;;5.47;85.68
43155;BME280;34212;51.018;13.586;2024-03-23T20:58:54;96948.28;;;5.46;85.53
43155;BME280;34212;51.018;13.586;2024-03-23T21:03:54;96945.63;;;5.46;85.55
43155;BME280;34212;51.018;13.586;2024-03-23T21:08:55;96939.69;;;5.44;85.25
43155;BME280;34212;51.018;13.586;2024-03-23T21:13:57;96940.69;;;5.43;85.37
43155;BME280;34212;51.018;13.586;2024-03-23T21:18:59;96941.16;;;5.39;84.44
43155;BME280;34212;51.018;13.586;2024-03-23T21:23:59;96943.34;;;5.35;84.88
43155;BME280;34212;51.018;13.586;2024-03-23T21:29:00;96936.22;;;5.36;85.14
43155;BME280;34212;51.018;13.586;2024-03-23T21:34:01;96939.72;;;5.36;85.16
43155;BME280;34212;51.018;13.586;2024-03-23T21:39:01;96929.78;;;5.38;85.33
43155;BME280;34212;51.018;13.586;2024-03-23T21:44:07;96930.78;;;5.37;85.08
43155;BME280;34212;51.018;13.586;2024-03-23T21:49:07;96928.47;;;5.34;84.57
43155;BME280;34212;51.018;13.586;2024-03-23T21:54:08;96923.03;;;5.27;84.66
43155;BME280;34212;51.018;13.586;2024-03-23T21:59:08;96923.38;;;5.24;84.39
43155;BME280;34212;51.018;13.586;2024-03-23T22:04:10;96922.69;;;5.22;84.50
43155;BME280;34212;51.018;13.586;2024-03-23T22:09:10;96921.22;;;5.20;84.84
43155;BME280;34212;51.018;13.586;2024-03-23T22:14:11;96921.88;;;5.14;84.94
43155;BME280;34212;51.018;13.586;2024-03-23T22:19:12;96924.22;;;5.08;85.55
43155;BME280;34212;51.018;13.586;2024-03-23T22:24:12;96928.34;;;5.03;85.53
43155;BME280;34212;51.018;13.586;2024-03-23T22:29:13;96913.66;;;5.00;86.03
43155;BME280;34212;51.018;13.586;2024-03-23T22:34:13;96919.94;;;4.99;85.56
43155;BME280;34212;51.018;13.586;2024-03-23T22:39:14;96907.88;;;4.97;86.10
43155;BME280;34212;51.018;13.586;2024-03-23T22:44:14;96907.06;;;4.96;85.71
43155;BME280;34212;51.018;13.586;2024-03-23T22:49:15;96909.03;;;4.94;86.02
43155;BME280;34212;51.018;13.586;2024-03-23T22:54:15;96910.66;;;4.95;86.42
43155;BME280;34212;51.018;13.586;2024-03-23T22:59:16;96903.91;;;4.93;86.70
43155;BME280;34212;51.018;13.586;2024-03-23T23:04:16;96899.13;;;4.88;86.40
43155;BME280;34212;51.018;13.586;2024-03-23T23:09:17;96884.59;;;4.84;86.24
43155;BME280;34212;51.018;13.586;2024-03-23T23:14:17;96885.59;;;4.83;86.10
43155;BME280;34212;51.018;13.586;2024-03-23T23:19:18;96881.28;;;4.82;86.28
43155;BME280;34212;51.018;13.586;2024-03-23T23:24:19;96881.28;;;4.82;85.88
43155;BME280;34212;51.018;13.586;2024-03-23T23:29:19;96885.09;;;4.79;86.26
43155;BME280;34212;51.018;13.586;2024-03-23T23:34:20;96880.00;;;4.86;85.57
43155;BME280;34212;51.018;13.586;2024-03-23T23:39:21;96867.41;;;4.88;85.63
43155;BME280;34212;51.018;13.586;2024-03-23T23:44:22;96870.72;;;4.90;85.06
43155;BME280;34212;51.018;13.586;2024-03-23T23:49:22;96856.03;;;4.88;85.86
43155;BME280;34212;51.018;13.586;2024-03-23T23:54:23;96856.50;;;4.91;85.38
43155;BME280;34212;51.018;13.586;2024-03-23T23:59:24;96849.41;;;4.92;85.24
